Time;durP1;ratioP1;P1;durP2;ratioP2;P2;SDS_P1;SDS_P2;PMS_P1;PMS_P2;Temp;Humidity;BMP_temperature;BMP_pressure;BME280_temperature;BME280_humidity;BME280_pressure;Samples;Min_cycle;Max_cycle;Signal;HPM_P1;HPM_P2
2023/10/29 00:00:11;;;;;;;12.73;8.48;;;10.50;99.90;;;;;;4984910;28;20523;-77
2023/10/29 00:02:37;;;;;;;10.63;8.88;;;10.50;99.90;;;;;;4934576;28;20031;-77
2023/10/29 00:05:03;;;;;;;12.23;9.13;;;10.40;99.90;;;;;;4951857;28;20037;-77
2023/10/29 00:07:28;;;;;;;12.85;9.63;;;10.50;99.90;;;;;;4925851;28;20050;-77
2023/10/29 00:09:55;;;;;;;13.90;10.05;;;10.50;99.90;;;;;;4936924;28;20071;-77
2023/10/29 00:12:21;;;;;;;16.33;9.25;;;10.50;99.90;;;;;;4931907;28;20046;-77
2023/10/29 00:14:46;;;;;;;13.07;9.82;;;10.50;99.90;;;;;;4919345;28;20043;-77
2023/10/29 00:17:12;;;;;;;15.50;10.63;;;10.50;99.90;;;;;;4959468;28;20533;-77
2023/10/29 00:19:38;;;;;;;12.05;9.45;;;10.50;99.90;;;;;;4970030;28;20090;-77
2023/10/29 00:22:04;;;;;;;14.85;10.13;;;10.60;99.90;;;;;;4936267;28;20046;-77
2023/10/29 00:24:29;;;;;;;16.70;10.55;;;10.60;99.90;;;;;;4953430;28;20066;-77
2023/10/29 00:26:55;;;;;;;15.43;11.18;;;10.60;99.90;;;;;;4960090;28;20038;-77
2023/10/29 00:29:21;;;;;;;11.98;9.38;;;10.60;99.90;;;;;;4968665;28;20051;-77
2023/10/29 00:31:47;;;;;;;11.02;9.30;;;10.70;99.90;;;;;;4969233;28;20121;-77
2023/10/29 00:34:12;;;;;;;14.20;11.02;;;10.70;99.90;;;;;;4969598;28;20131;-77
2023/10/29 00:36:38;;;;;;;13.25;10.20;;;10.70;99.90;;;;;;4966036;28;20035;-77
2023/10/29 00:39:04;;;;;;;11.18;9.00;;;10.70;99.90;;;;;;4953171;28;20137;-77
2023/10/29 00:41:30;;;;;;;13.50;9.52;;;10.70;99.90;;;;;;4936869;28;20039;-76
2023/10/29 00:43:56;;;;;;;14.32;10.30;;;10.70;99.90;;;;;;4953251;28;20054;-76
2023/10/29 00:46:23;;;;;;;9.65;8.63;;;10.70;99.90;;;;;;4952930;28;20046;-76
2023/10/29 00:48:50;;;;;;;11.52;9.27;;;10.80;99.90;;;;;;4975487;28;20282;-76
2023/10/29 00:51:17;;;;;;;12.23;9.20;;;10.80;99.90;;;;;;4953373;28;20496;-76
2023/10/29 00:53:43;;;;;;;12.05;9.23;;;10.80;99.90;;;;;;4953776;28;20400;-76
2023/10/29 00:56:11;;;;;;;12.13;9.05;;;10.80;99.90;;;;;;4975756;28;20120;-76
2023/10/29 00:58:37;;;;;;;11.30;8.93;;;10.80;99.90;;;;;;4949124;28;20058;-76
2023/10/29 01:01:03;;;;;;;13.35;9.80;;;10.80;99.90;;;;;;4953596;28;20668;-76
2023/10/29 01:03:29;;;;;;;16.67;9.40;;;10.80;99.90;;;;;;4952922;28;20041;-76
2023/10/29 01:05:56;;;;;;;14.70;10.35;;;10.90;99.90;;;;;;4951237;28;20118;-76
2023/10/29 01:08:22;;;;;;;13.45;10.30;;;10.90;99.90;;;;;;4962452;28;20492;-77
2023/10/29 01:10:47;;;;;;;11.70;9.88;;;10.90;99.90;;;;;;4962386;28;20419;-77
2023/10/29 01:13:13;;;;;;;15.88;10.05;;;10.90;99.90;;;;;;4942064;28;20047;-76
2023/10/29 01:15:39;;;;;;;13.57;9.93;;;10.90;99.90;;;;;;4948938;28;20082;-76
2023/10/29 01:18:06;;;;;;;13.18;9.50;;;10.90;99.90;;;;;;4961245;28;20524;-76
2023/10/29 01:20:32;;;;;;;11.55;9.52;;;10.90;99.90;;;;;;4953629;28;20051;-76
2023/10/29 01:22:58;;;;;;;12.25;9.60;;;10.90;99.90;;;;;;4966625;28;20035;-76
2023/10/29 01:25:23;;;;;;;14.02;10.35;;;11.00;99.90;;;;;;4946717;28;20035;-76
2023/10/29 01:27:49;;;;;;;11.88;8.65;;;11.00;99.90;;;;;;4965530;28;20043;-77
2023/10/29 01:30:15;;;;;;;11.82;10.35;;;11.10;99.90;;;;;;4964751;28;20130;-76
2023/10/29 01:32:40;;;;;;;13.40;8.85;;;11.10;99.90;;;;;;4938332;28;20064;-76
2023/10/29 01:35:06;;;;;;;12.23;9.05;;;11.10;99.90;;;;;;4963931;28;20492;-76
2023/10/29 01:37:32;;;;;;;13.35;8.93;;;11.10;99.90;;;;;;4952264;28;20512;-76
2023/10/29 01:39:58;;;;;;;11.35;8.90;;;11.10;99.90;;;;;;4967178;28;20057;-76
2023/10/29 01:42:23;;;;;;;12.73;8.32;;;11.10;99.90;;;;;;4954382;28;20058;-76
2023/10/29 01:44:49;;;;;;;12.52;9.23;;;11.20;99.90;;;;;;4935583;28;20030;-76
2023/10/29 01:47:15;;;;;;;14.85;8.85;;;11.20;99.90;;;;;;4956451;28;20067;-76
2023/10/29 01:49:41;;;;;;;10.32;8.05;;;11.20;99.90;;;;;;4971114;28;20125;-76
2023/10/29 01:52:06;;;;;;;10.73;6.53;;;11.20;99.90;;;;;;4940275;28;20113;-76
2023/10/29 01:54:32;;;;;;;11.15;6.88;;;11.30;99.90;;;;;;4956824;28;20038;-76
2023/10/29 01:56:58;;;;;;;9.50;7.13;;;11.30;99.90;;;;;;4955910;28;20042;-76
2023/10/29 01:59:23;;;;;;;10.20;6.82;;;11.30;99.90;;;;;;4971242;28;20039;-76
2023/10/29 02:01:50;;;;;;;12.25;7.25;;;11.40;99.90;;;;;;4954341;28;20039;-76
2023/10/29 02:04:16;;;;;;;8.75;6.32;;;11.30;99.90;;;;;;4998969;28;20404;-76
2023/10/29 02:06:41;;;;;;;9.50;6.22;;;11.40;99.90;;;;;;4971238;28;20102;-76
2023/10/29 02:09:08;;;;;;;10.43;5.47;;;11.40;99.90;;;;;;4951664;28;20543;-76
2023/10/29 02:11:38;;;;;;;10.23;5.55;;;11.40;99.90;;;;;;4972189;28;20097;-76
2023/10/29 02:14:05;;;;;;;9.10;6.13;;;11.40;99.90;;;;;;4970005;28;20404;-76
2023/10/29 02:16:31;;;;;;;7.60;5.43;;;11.40;99.90;;;;;;4980151;28;20059;-76
2023/10/29 02:18:57;;;;;;;10.00;5.30;;;11.40;99.90;;;;;;4958541;28;20120;-76
2023/10/29 02:21:24;;;;;;;8.45;5.22;;;11.40;99.90;;;;;;4951548;28;20042;-76
2023/10/29 02:23:54;;;;;;;7.32;4.85;;;11.40;99.90;;;;;;4961658;28;20131;-76
2023/10/29 02:26:23;;;;;;;9.63;5.10;;;11.40;99.90;;;;;;4954833;28;20035;-76
2023/10/29 02:28:49;;;;;;;6.18;3.97;;;11.40;99.90;;;;;;4971589;28;20598;-76
2023/10/29 02:31:19;;;;;;;9.05;5.07;;;11.40;99.90;;;;;;4949741;28;20126;-76
2023/10/29 02:33:46;;;;;;;9.40;5.35;;;11.50;99.90;;;;;;4968082;28;20580;-76
2023/10/29 02:36:12;;;;;;;7.32;4.18;;;11.50;99.90;;;;;;4923918;28;20125;-76
2023/10/29 02:38:37;;;;;;;6.38;4.28;;;11.40;99.90;;;;;;4955072;28;20038;-76
2023/10/29 02:41:04;;;;;;;10.65;4.68;;;11.40;99.90;;;;;;4962583;28;20050;-76
2023/10/29 02:43:30;;;;;;;6.70;4.32;;;11.50;99.90;;;;;;4963388;28;20049;-76
2023/10/29 02:45:56;;;;;;;8.85;4.00;;;11.40;99.90;;;;;;4947948;28;20055;-76
2023/10/29 02:48:21;;;;;;;6.10;3.95;;;11.40;99.90;;;;;;4938774;28;20113;-76
2023/10/29 02:50:47;;;;;;;8.05;4.75;;;11.40;99.90;;;;;;4939319;28;20046;-76
2023/10/29 02:53:13;;;;;;;5.40;3.97;;;11.40;99.90;;;;;;4970915;28;20042;-76
2023/10/29 02:55:39;;;;;;;6.07;4.10;;;11.50;99.90;;;;;;4951362;28;20042;-76
2023/10/29 02:58:05;;;;;;;6.68;3.80;;;11.50;99.90;;;;;;4940731;28;20521;-76
2023/10/29 03:00:32;;;;;;;8.20;3.67;;;11.50;99.90;;;;;;4970548;28;20045;-76
2023/10/29 03:02:57;;;;;;;5.85;3.75;;;11.50;99.90;;;;;;4950620;28;20067;-76
2023/10/29 03:05:23;;;;;;;6.88;3.38;;;11.50;99.90;;;;;;4965227;28;20508;-76
2023/10/29 03:07:49;;;;;;;5.15;3.55;;;11.50;99.90;;;;;;4962118;28;20183;-76
2023/10/29 03:10:14;;;;;;;5.65;3.20;;;11.50;99.90;;;;;;4953951;28;20042;-76
2023/10/29 03:12:40;;;;;;;6.93;3.40;;;11.50;99.90;;;;;;4965289;28;20039;-76
2023/10/29 03:15:07;;;;;;;5.30;3.42;;;11.60;99.90;;;;;;4953493;28;20047;-76
2023/10/29 03:17:33;;;;;;;6.30;3.30;;;11.60;99.90;;;;;;4952007;28;20046;-76
2023/10/29 03:19:59;;;;;;;4.63;3.20;;;11.60;99.90;;;;;;4948275;28;20457;-76
2023/10/29 03:22:24;;;;;;;6.25;3.10;;;11.60;99.90;;;;;;4968678;28;20043;-76
2023/10/29 03:24:50;;;;;;;5.05;3.28;;;11.60;99.90;;;;;;4953118;28;20046;-76
2023/10/29 03:27:16;;;;;;;4.63;3.25;;;11.60;99.90;;;;;;4967890;28;20039;-76
2023/10/29 03:29:41;;;;;;;7.47;3.22;;;11.60;99.90;;;;;;4970063;28;20074;-76
2023/10/29 03:32:07;;;;;;;3.92;2.63;;;11.60;99.90;;;;;;4969781;28;20085;-76
2023/10/29 03:34:33;;;;;;;5.75;3.35;;;11.70;99.90;;;;;;4954421;28;20035;-76
2023/10/29 03:36:58;;;;;;;5.13;2.92;;;11.70;99.90;;;;;;4970593;28;20071;-76
2023/10/29 03:39:24;;;;;;;8.10;3.30;;;11.70;99.90;;;;;;4970091;28;20046;-76
2023/10/29 03:41:50;;;;;;;8.65;3.47;;;11.70;99.90;;;;;;4952394;28;20101;-76
2023/10/29 03:44:16;;;;;;;6.65;3.20;;;11.80;99.90;;;;;;4947135;28;20049;-76
2023/10/29 03:46:41;;;;;;;8.65;3.47;;;11.80;99.90;;;;;;4969224;28;20066;-76
2023/10/29 03:49:07;;;;;;;6.35;3.15;;;11.70;99.90;;;;;;4948992;28;20050;-76
2023/10/29 03:51:33;;;;;;;6.32;2.92;;;11.70;99.90;;;;;;4974013;28;20046;-75
2023/10/29 03:53:58;;;;;;;4.95;2.65;;;11.80;99.90;;;;;;4965039;28;20045;-76
2023/10/29 03:56:24;;;;;;;5.25;2.60;;;11.70;99.90;;;;;;4946932;28;20392;-76
2023/10/29 03:58:50;;;;;;;5.30;2.92;;;11.80;99.90;;;;;;4952092;28;20043;-76
2023/10/29 04:01:16;;;;;;;4.90;2.83;;;11.70;99.90;;;;;;4955722;28;20170;-76
2023/10/29 04:03:43;;;;;;;5.43;2.92;;;11.80;99.90;;;;;;4968585;28;20045;-75
2023/10/29 04:06:10;;;;;;;6.65;2.80;;;11.80;99.90;;;;;;4969344;28;20408;-75
2023/10/29 04:08:37;;;;;;;6.03;3.10;;;11.80;99.90;;;;;;4935160;28;20046;-76
2023/10/29 04:11:03;;;;;;;5.53;3.30;;;11.80;99.90;;;;;;4968708;28;20035;-76
2023/10/29 04:13:29;;;;;;;8.77;3.28;;;11.80;99.90;;;;;;4975689;28;20113;-76
2023/10/29 04:15:54;;;;;;;4.95;2.50;;;11.80;99.90;;;;;;4952612;28;20135;-76
2023/10/29 04:18:24;;;;;;;4.40;2.30;;;11.80;99.90;;;;;;4960058;28;20500;-76
2023/10/29 04:20:50;;;;;;;4.05;2.17;;;11.80;99.90;;;;;;4969512;28;20534;-76
2023/10/29 04:23:16;;;;;;;5.07;2.63;;;11.80;99.90;;;;;;4964881;28;20038;-76
2023/10/29 04:25:44;;;;;;;4.75;2.55;;;11.90;99.90;;;;;;4953323;28;20049;-76
2023/10/29 04:28:10;;;;;;;4.25;2.50;;;11.90;99.90;;;;;;4954701;28;20074;-76
2023/10/29 04:30:36;;;;;;;3.63;2.40;;;11.90;99.90;;;;;;4960874;28;20050;-76
2023/10/29 04:33:03;;;;;;;5.22;2.15;;;11.90;99.90;;;;;;4969343;28;20081;-76
2023/10/29 04:35:29;;;;;;;4.18;2.72;;;11.90;99.90;;;;;;4965208;28;20493;-76
2023/10/29 04:37:55;;;;;;;3.80;2.13;;;11.90;99.90;;;;;;4970019;28;20211;-76
2023/10/29 04:40:21;;;;;;;4.03;2.30;;;12.00;99.90;;;;;;4967868;28;20078;-76
2023/10/29 04:42:47;;;;;;;5.70;2.17;;;12.00;99.90;;;;;;4953668;28;20043;-76
2023/10/29 04:45:12;;;;;;;5.18;2.13;;;12.00;99.90;;;;;;4953798;28;20039;-76
2023/10/29 04:47:38;;;;;;;4.00;1.98;;;12.00;99.90;;;;;;4953166;28;20070;-76
2023/10/29 04:50:05;;;;;;;4.97;2.05;;;12.00;99.90;;;;;;4969311;28;20043;-76
2023/10/29 04:52:31;;;;;;;3.50;2.30;;;12.10;99.90;;;;;;4953669;28;20503;-76
2023/10/29 04:54:57;;;;;;;5.05;1.90;;;12.10;99.90;;;;;;4952276;28;20094;-76
2023/10/29 04:57:23;;;;;;;6.57;1.80;;;12.10;99.90;;;;;;4947370;28;20039;-75
2023/10/29 04:59:48;;;;;;;3.67;2.30;;;12.10;99.90;;;;;;4950119;28;20531;-76
2023/10/29 05:02:18;;;;;;;5.05;1.73;;;12.10;99.90;;;;;;4953032;28;20039;-76
2023/10/29 05:04:43;;;;;;;3.90;2.10;;;12.10;99.90;;;;;;4973378;28;20129;-76
2023/10/29 05:07:09;;;;;;;5.22;1.90;;;12.10;99.90;;;;;;4962615;28;20118;-76
2023/10/29 05:09:35;;;;;;;6.43;1.88;;;12.10;99.90;;;;;;4964222;28;20043;-76
2023/10/29 05:12:01;;;;;;;4.22;1.80;;;12.10;99.90;;;;;;4951944;28;20039;-76
2023/10/29 05:14:27;;;;;;;5.50;1.90;;;12.20;99.90;;;;;;4962009;28;20074;-76
2023/10/29 05:16:53;;;;;;;6.10;2.05;;;12.20;99.90;;;;;;4966966;28;20093;-76
2023/10/29 05:19:18;;;;;;;3.15;1.80;;;12.30;99.90;;;;;;4972172;28;20073;-76
2023/10/29 05:21:44;;;;;;;3.35;1.50;;;12.30;99.90;;;;;;4977703;28;20043;-76
2023/10/29 05:24:10;;;;;;;6.03;2.03;;;12.30;99.90;;;;;;4955602;28;20050;-76
2023/10/29 05:26:39;;;;;;;2.10;1.55;;;12.30;99.90;;;;;;4943008;28;20036;-76
2023/10/29 05:29:04;;;;;;;3.70;1.55;;;12.30;99.90;;;;;;4957858;28;20114;-76
2023/10/29 05:31:31;;;;;;;4.05;1.48;;;12.30;99.90;;;;;;4932609;28;20165;-76
2023/10/29 05:33:57;;;;;;;2.58;1.50;;;12.30;99.90;;;;;;4941068;28;20050;-76
2023/10/29 05:36:23;;;;;;;2.83;1.40;;;12.40;99.90;;;;;;4932763;28;20043;-77
2023/10/29 05:38:48;;;;;;;4.28;1.90;;;12.30;99.90;;;;;;4967767;28;20071;-77
2023/10/29 05:41:14;;;;;;;4.72;1.65;;;12.30;99.90;;;;;;4972785;28;20039;-77
2023/10/29 05:43:40;;;;;;;3.55;1.55;;;12.30;99.90;;;;;;4972533;28;20170;-76
2023/10/29 05:46:14;;;;;;;3.20;1.40;;;12.30;99.90;;;;;;4961969;28;20094;-76
2023/10/29 05:48:40;;;;;;;11.23;2.15;;;12.30;99.90;;;;;;4971995;28;20034;-76
2023/10/29 05:51:06;;;;;;;2.78;1.63;;;12.30;99.90;;;;;;4957393;28;20074;-76
2023/10/29 05:53:31;;;;;;;3.58;1.80;;;12.40;99.90;;;;;;4952443;28;20046;-77
2023/10/29 05:55:57;;;;;;;2.70;1.70;;;12.40;99.90;;;;;;4957212;28;20069;-76
2023/10/29 05:58:24;;;;;;;4.20;1.83;;;12.30;99.90;;;;;;4950495;28;20126;-76
2023/10/29 06:00:53;;;;;;;3.00;1.30;;;12.30;99.90;;;;;;4965100;28;20050;-76
2023/10/29 06:03:18;;;;;;;3.10;1.40;;;12.30;99.90;;;;;;4958798;28;20046;-76
2023/10/29 06:05:44;;;;;;;3.08;1.63;;;12.30;99.90;;;;;;4946946;28;20035;-76
2023/10/29 06:08:10;;;;;;;4.82;1.65;;;12.30;99.90;;;;;;4964543;28;20047;-76
2023/10/29 06:10:36;;;;;;;1.92;1.40;;;12.30;99.90;;;;;;4921665;28;20555;-76
2023/10/29 06:13:01;;;;;;;5.68;1.83;;;12.30;99.90;;;;;;4929766;28;20046;-76
2023/10/29 06:15:27;;;;;;;4.07;1.80;;;12.40;99.90;;;;;;4943305;28;20090;-76
2023/10/29 06:17:56;;;;;;;3.05;1.80;;;12.40;99.90;;;;;;4979097;28;20054;-77
2023/10/29 06:20:22;;;;;;;3.13;1.70;;;12.40;99.90;;;;;;4967454;28;20122;-77
2023/10/29 06:22:48;;;;;;;4.15;1.85;;;12.40;99.90;;;;;;4941811;28;20458;-77
2023/10/29 06:25:14;;;;;;;4.43;1.58;;;12.40;99.90;;;;;;4963457;28;20127;-77
2023/10/29 06:27:40;;;;;;;4.93;1.83;;;12.40;99.90;;;;;;4961840;28;20069;-77
2023/10/29 06:30:07;;;;;;;4.07;1.45;;;12.40;99.90;;;;;;4938431;28;20118;-76
2023/10/29 06:32:32;;;;;;;4.85;1.88;;;12.40;99.90;;;;;;4938550;28;20042;-77
2023/10/29 06:34:58;;;;;;;4.22;1.90;;;12.50;99.90;;;;;;4958091;28;20045;-77
2023/10/29 06:37:24;;;;;;;3.60;1.55;;;12.50;99.90;;;;;;4933986;28;20047;-77
2023/10/29 06:39:49;;;;;;;4.30;1.65;;;12.40;99.90;;;;;;4945991;28;20057;-77
2023/10/29 06:42:15;;;;;;;3.55;1.40;;;12.40;99.90;;;;;;4945675;28;20117;-77
2023/10/29 06:44:41;;;;;;;4.50;1.80;;;12.40;99.90;;;;;;4962816;28;20031;-77
2023/10/29 06:47:07;;;;;;;4.72;1.70;;;12.40;99.90;;;;;;4956156;28;20035;-77
2023/10/29 06:49:33;;;;;;;6.72;2.00;;;12.30;99.90;;;;;;4941360;28;20135;-77
2023/10/29 06:51:59;;;;;;;3.75;1.60;;;12.20;99.90;;;;;;4932700;28;20130;-77
2023/10/29 06:54:25;;;;;;;4.90;1.70;;;12.20;99.90;;;;;;4958700;28;20543;-77
2023/10/29 06:56:50;;;;;;;5.00;1.63;;;12.20;99.90;;;;;;4939626;29;20044;-77
2023/10/29 06:59:16;;;;;;;3.40;1.70;;;12.20;99.90;;;;;;4987902;28;20067;-77
2023/10/29 07:01:42;;;;;;;3.88;1.42;;;12.30;99.90;;;;;;4937714;28;20389;-77
2023/10/29 07:04:08;;;;;;;4.93;1.65;;;12.30;99.90;;;;;;4978556;28;20042;-77
2023/10/29 07:06:34;;;;;;;4.72;1.90;;;12.40;99.90;;;;;;4981779;28;20401;-77
2023/10/29 07:09:00;;;;;;;6.82;1.70;;;12.40;99.90;;;;;;4957453;28;20527;-77
2023/10/29 07:11:29;;;;;;;3.90;1.45;;;12.40;99.90;;;;;;4959842;28;20685;-77
2023/10/29 07:13:54;;;;;;;3.58;1.70;;;12.50;99.90;;;;;;4940560;28;20117;-76
2023/10/29 07:16:20;;;;;;;3.60;1.48;;;12.50;99.90;;;;;;4962497;28;20139;-77
2023/10/29 07:18:46;;;;;;;4.20;1.67;;;12.60;99.90;;;;;;4960063;28;20051;-77
2023/10/29 07:21:12;;;;;;;4.50;1.50;;;12.60;99.90;;;;;;4961148;28;20106;-77
2023/10/29 07:23:38;;;;;;;4.03;1.65;;;12.60;99.90;;;;;;4977456;28;20035;-76
2023/10/29 07:26:04;;;;;;;3.10;1.65;;;12.70;99.90;;;;;;4941346;28;20094;-77
2023/10/29 07:28:29;;;;;;;4.72;1.65;;;12.60;99.90;;;;;;4949536;28;20058;-77
2023/10/29 07:30:55;;;;;;;4.15;1.50;;;12.60;99.90;;;;;;4936106;28;20050;-77
2023/10/29 07:33:21;;;;;;;6.63;1.77;;;12.60;99.90;;;;;;4944305;28;20054;-77
2023/10/29 07:35:47;;;;;;;3.65;1.60;;;12.60;99.90;;;;;;4955223;28;20043;-77
2023/10/29 07:38:12;;;;;;;2.58;1.45;;;12.60;99.90;;;;;;4926858;28;20097;-76
2023/10/29 07:40:38;;;;;;;3.53;1.58;;;12.60;99.90;;;;;;4944164;28;20127;-77
2023/10/29 07:43:04;;;;;;;4.18;1.70;;;12.60;99.90;;;;;;4958148;28;20400;-77
2023/10/29 07:45:31;;;;;;;6.28;1.60;;;12.60;99.90;;;;;;4969553;28;20030;-77
2023/10/29 07:47:57;;;;;;;4.13;1.77;;;12.60;99.90;;;;;;4953955;28;20062;-77
2023/10/29 07:50:22;;;;;;;5.00;1.45;;;12.60;99.90;;;;;;4985415;28;20523;-77
2023/10/29 07:52:48;;;;;;;5.30;1.50;;;12.60;99.90;;;;;;4954807;28;20046;-77
2023/10/29 07:55:14;;;;;;;3.42;1.48;;;12.60;99.90;;;;;;4970548;28;20432;-77
2023/10/29 07:57:40;;;;;;;4.55;1.27;;;12.60;99.90;;;;;;4964427;28;20036;-77
2023/10/29 08:00:13;;;;;;;6.20;1.55;;;12.60;99.90;;;;;;4936304;28;20043;-77
2023/10/29 08:02:42;;;;;;;3.15;1.30;;;12.60;99.90;;;;;;4982543;28;20035;-77
2023/10/29 08:05:10;;;;;;;2.20;1.52;;;12.60;99.90;;;;;;4944782;28;20403;-77
2023/10/29 08:07:36;;;;;;;7.68;1.90;;;12.60;99.90;;;;;;4954142;28;20042;-77
2023/10/29 08:10:02;;;;;;;5.63;1.60;;;12.60;99.90;;;;;;4943030;28;20042;-77
2023/10/29 08:12:29;;;;;;;3.80;1.60;;;12.60;99.90;;;;;;4956607;28;20173;-77
2023/10/29 08:14:55;;;;;;;2.45;1.58;;;12.60;99.90;;;;;;4956587;28;20039;-77
2023/10/29 08:17:21;;;;;;;7.05;1.85;;;12.60;99.90;;;;;;4975577;28;20523;-77
2023/10/29 08:19:47;;;;;;;4.00;1.48;;;12.60;99.90;;;;;;4929417;28;20527;-77
2023/10/29 08:22:13;;;;;;;4.07;1.67;;;12.60;99.90;;;;;;4948090;28;20038;-77
2023/10/29 08:24:40;;;;;;;2.65;1.50;;;12.50;99.90;;;;;;4953752;28;20692;-76
2023/10/29 08:27:08;;;;;;;4.68;1.70;;;12.50;99.90;;;;;;4969280;28;20126;-77
2023/10/29 08:29:38;;;;;;;5.28;2.35;;;12.60;99.90;;;;;;4959973;28;20038;-76
2023/10/29 08:32:04;;;;;;;3.17;1.70;;;12.60;99.90;;;;;;4987623;28;20047;-77
2023/10/29 08:34:30;;;;;;;5.00;1.60;;;12.60;99.90;;;;;;4956823;28;20115;-77
2023/10/29 08:36:56;;;;;;;6.90;1.55;;;12.60;99.90;;;;;;4959550;28;20046;-77
2023/10/29 08:39:23;;;;;;;6.10;1.80;;;12.60;99.90;;;;;;4948601;28;20154;-77
2023/10/29 08:41:49;;;;;;;6.15;1.73;;;12.60;99.90;;;;;;4951504;28;20094;-77
2023/10/29 08:44:15;;;;;;;9.85;1.70;;;12.60;99.90;;;;;;4952753;28;20042;-76
2023/10/29 08:46:43;;;;;;;4.72;1.83;;;12.60;99.90;;;;;;4953937;28;20037;-76
2023/10/29 08:49:09;;;;;;;5.13;1.42;;;12.60;99.90;;;;;;4973086;28;20039;-78
2023/10/29 08:51:35;;;;;;;4.10;1.40;;;12.60;99.90;;;;;;4957822;28;20554;-77
2023/10/29 08:54:02;;;;;;;5.72;1.58;;;12.70;99.90;;;;;;4958040;28;20042;-78
2023/10/29 08:56:29;;;;;;;4.72;1.58;;;12.70;99.90;;;;;;4971809;28;20118;-77
2023/10/29 08:58:55;;;;;;;5.80;1.70;;;12.80;99.90;;;;;;4969705;28;20047;-78
2023/10/29 09:01:21;;;;;;;4.70;1.58;;;12.80;99.90;;;;;;4960674;28;20085;-78
2023/10/29 09:03:46;;;;;;;3.33;1.65;;;12.90;99.90;;;;;;4972029;28;20118;-78
2023/10/29 09:06:12;;;;;;;7.65;1.88;;;12.90;99.90;;;;;;4971706;28;20053;-78
2023/10/29 09:08:40;;;;;;;3.38;1.42;;;13.00;99.90;;;;;;4973220;28;20035;-78
2023/10/29 09:11:06;;;;;;;2.88;1.40;;;13.00;99.90;;;;;;4973818;28;20035;-78
2023/10/29 09:13:32;;;;;;;6.22;1.65;;;13.00;99.90;;;;;;4972127;28;20412;-78
2023/10/29 09:15:58;;;;;;;6.28;1.63;;;13.00;99.90;;;;;;4940196;28;20058;-78
2023/10/29 09:18:23;;;;;;;5.93;1.67;;;13.00;99.90;;;;;;4985190;28;20051;-77
2023/10/29 09:20:50;;;;;;;6.88;1.80;;;13.10;99.90;;;;;;4973698;28;20528;-77
2023/10/29 09:23:16;;;;;;;3.88;1.63;;;13.20;99.90;;;;;;4955699;28;20051;-77
2023/10/29 09:25:45;;;;;;;9.57;2.42;;;13.20;99.90;;;;;;4939847;28;20112;-77
2023/10/29 09:28:12;;;;;;;7.57;2.25;;;13.40;99.90;;;;;;4973461;28;20033;-77
2023/10/29 09:30:41;;;;;;;6.72;1.98;;;13.40;99.90;;;;;;4956260;28;20049;-78
2023/10/29 09:33:08;;;;;;;7.10;1.92;;;13.40;99.90;;;;;;4944959;28;20039;-77
2023/10/29 09:35:37;;;;;;;6.95;2.20;;;13.30;99.90;;;;;;4979498;28;20054;-77
2023/10/29 09:38:03;;;;;;;5.22;2.05;;;13.20;99.90;;;;;;4974096;28;20042;-77
2023/10/29 09:40:29;;;;;;;5.90;1.90;;;13.20;99.90;;;;;;4953072;28;20415;-77
2023/10/29 09:42:58;;;;;;;6.07;2.03;;;13.30;99.90;;;;;;4957017;28;20042;-77
2023/10/29 09:45:26;;;;;;;7.40;2.22;;;13.20;99.90;;;;;;4971990;28;20123;-77
2023/10/29 09:47:56;;;;;;;8.45;2.45;;;13.20;99.90;;;;;;4939795;28;20078;-77
2023/10/29 09:50:22;;;;;;;8.25;2.40;;;13.20;99.90;;;;;;4973137;28;20102;-77
2023/10/29 09:52:54;;;;;;;8.93;1.92;;;13.30;99.90;;;;;;4955216;28;20062;-77
2023/10/29 09:55:21;;;;;;;6.95;2.10;;;13.20;99.90;;;;;;4957082;28;20121;-77
2023/10/29 09:57:47;;;;;;;7.18;2.10;;;13.30;99.90;;;;;;4971892;28;20743;-78
2023/10/29 10:00:16;;;;;;;5.75;2.03;;;13.30;99.90;;;;;;4971604;28;20050;-76
2023/10/29 10:02:53;;;;;;;5.35;2.00;;;13.30;99.90;;;;;;4972815;28;20046;-76
2023/10/29 10:05:21;;;;;;;9.25;2.25;;;13.40;99.90;;;;;;4956676;28;20035;-76
2023/10/29 10:07:47;;;;;;;9.88;2.22;;;13.40;99.90;;;;;;4955841;28;20042;-76
2023/10/29 10:10:14;;;;;;;3.80;1.80;;;13.40;99.90;;;;;;4936995;29;20516;-77
2023/10/29 10:12:48;;;;;;;10.57;2.40;;;13.40;99.90;;;;;;4967245;28;20129;-77
2023/10/29 10:15:15;;;;;;;9.00;2.35;;;13.40;99.90;;;;;;4952948;28;20135;-76
2023/10/29 10:17:47;;;;;;;10.50;2.60;;;13.30;99.90;;;;;;4968788;28;20042;-76
2023/10/29 10:20:13;;;;;;;9.05;2.83;;;13.30;99.90;;;;;;4968848;28;20500;-77
2023/10/29 10:22:39;;;;;;;8.00;2.67;;;13.30;99.90;;;;;;4937951;29;20035;-77
2023/10/29 10:25:15;;;;;;;9.27;2.30;;;13.30;99.90;;;;;;4983651;28;20035;-77
2023/10/29 10:27:51;;;;;;;6.72;2.50;;;13.30;99.90;;;;;;4968805;28;20038;-77
2023/10/29 10:30:31;;;;;;;10.73;2.58;;;13.30;99.90;;;;;;4972024;28;20077;-77
2023/10/29 10:33:18;;;;;;;10.35;2.53;;;13.30;99.90;;;;;;4958239;28;20121;-77
2023/10/29 10:35:54;;;;;;;6.97;2.10;;;13.30;99.90;;;;;;4951556;28;20804;-77
2023/10/29 10:38:20;;;;;;;7.57;2.80;;;13.30;99.90;;;;;;4972390;28;20047;-77
2023/10/29 10:40:47;;;;;;;7.30;2.15;;;13.40;99.90;;;;;;4954733;28;20043;-77
2023/10/29 10:43:18;;;;;;;7.25;2.83;;;13.40;99.90;;;;;;4967502;28;20039;-78
2023/10/29 10:45:50;;;;;;;9.88;2.80;;;13.50;99.90;;;;;;4971039;28;20492;-77
2023/10/29 10:48:16;;;;;;;7.88;2.38;;;13.60;99.90;;;;;;4962433;28;20431;-77
2023/10/29 10:50:45;;;;;;;5.15;2.05;;;13.70;99.90;;;;;;4921843;28;20051;-77
2023/10/29 10:53:13;;;;;;;8.40;2.20;;;13.80;99.90;;;;;;4954006;28;20038;-77
2023/10/29 10:55:40;;;;;;;8.27;2.70;;;13.80;99.90;;;;;;4957490;28;20042;-77
2023/10/29 10:58:06;;;;;;;9.75;2.42;;;13.80;99.90;;;;;;4947343;28;20042;-77
2023/10/29 11:00:32;;;;;;;5.85;2.67;;;13.90;99.90;;;;;;4980896;28;20066;-77
2023/10/29 11:02:59;;;;;;;10.63;2.40;;;13.90;99.90;;;;;;4964119;28;20527;-78
2023/10/29 11:05:30;;;;;;;9.52;2.58;;;13.90;99.90;;;;;;4955452;28;20507;-77
2023/10/29 11:07:57;;;;;;;10.10;2.78;;;13.80;99.90;;;;;;4931197;28;20035;-77
2023/10/29 11:10:25;;;;;;;7.95;2.38;;;13.80;99.90;;;;;;4963200;28;20133;-77
2023/10/29 11:12:51;;;;;;;10.68;2.58;;;13.70;99.90;;;;;;4934855;28;20043;-77
2023/10/29 11:15:22;;;;;;;10.93;2.72;;;13.70;99.90;;;;;;4964558;28;20054;-77
2023/10/29 11:18:01;;;;;;;4.80;2.30;;;13.70;99.90;;;;;;4970760;28;20053;-77
2023/10/29 11:20:41;;;;;;;8.45;2.85;;;13.70;99.90;;;;;;4960944;28;20042;-77
2023/10/29 11:23:13;;;;;;;7.70;2.30;;;13.70;99.90;;;;;;4974051;28;20116;-77
2023/10/29 11:25:40;;;;;;;6.07;2.40;;;13.80;99.90;;;;;;4949860;28;20035;-77
2023/10/29 11:28:26;;;;;;;5.55;2.25;;;13.90;99.90;;;;;;4963178;28;20366;-77
2023/10/29 11:31:15;;;;;;;6.88;2.20;;;13.90;99.90;;;;;;4981096;28;20485;-78
2023/10/29 11:33:55;;;;;;;8.38;2.78;;;14.00;99.90;;;;;;4983466;28;20070;-78
2023/10/29 11:36:39;;;;;;;5.72;2.22;;;14.00;99.90;;;;;;4952809;28;20049;-77
2023/10/29 11:39:18;;;;;;;7.75;2.20;;;14.00;99.90;;;;;;4947127;28;20155;-77
2023/10/29 11:41:45;;;;;;;8.00;2.15;;;14.20;99.90;;;;;;4962167;28;20054;-77
2023/10/29 11:44:28;;;;;;;10.77;2.35;;;14.30;99.90;;;;;;4957066;28;20035;-76
2023/10/29 11:47:01;;;;;;;;;;;14.30;99.90;;;;;;4952545;28;20039;-77
2023/10/29 11:49:29;;;;;;;9.73;2.33;;;14.40;99.90;;;;;;4961011;28;20438;-77
2023/10/29 11:52:01;;;;;;;9.27;2.22;;;14.40;99.90;;;;;;4965215;28;20121;-78
2023/10/29 11:54:32;;;;;;;5.18;2.10;;;14.50;99.90;;;;;;4952422;28;20137;-77
2023/10/29 11:56:59;;;;;;;6.07;1.95;;;14.50;99.90;;;;;;4966089;28;20104;-77
2023/10/29 11:59:25;;;;;;;7.78;2.40;;;14.60;99.90;;;;;;4939391;28;20035;-77
2023/10/29 12:01:53;;;;;;;11.02;3.13;;;14.60;99.90;;;;;;4947509;28;20104;-77
2023/10/29 12:04:19;;;;;;;6.80;2.03;;;14.60;99.90;;;;;;4970986;28;20031;-77
2023/10/29 12:06:47;;;;;;;6.85;2.10;;;14.60;99.90;;;;;;4945168;28;20035;-79
2023/10/29 12:09:27;;;;;;;7.45;2.17;;;14.50;99.90;;;;;;4961926;28;20042;-76
2023/10/29 12:11:54;;;;;;;5.50;2.17;;;14.40;99.90;;;;;;4965005;28;20046;-76
2023/10/29 12:14:55;;;;;;;6.45;2.40;;;14.30;99.90;;;;;;4962922;28;20283;-76
2023/10/29 12:17:21;;;;;;;8.32;2.33;;;14.30;99.90;;;;;;5009750;28;20155;-76
2023/10/29 12:19:47;;;;;;;8.48;2.63;;;14.20;99.90;;;;;;4978078;28;20492;-76
2023/10/29 12:22:15;;;;;;;20.52;2.63;;;14.20;99.90;;;;;;4953661;28;20035;-76
2023/10/29 12:24:41;;;;;;;7.68;1.98;;;14.10;99.90;;;;;;4953789;28;20129;-76
2023/10/29 12:27:07;;;;;;;6.63;2.15;;;14.00;99.90;;;;;;4943161;28;20185;-75
2023/10/29 12:29:33;;;;;;;6.57;2.20;;;14.00;99.90;;;;;;4954595;28;21624;-76
2023/10/29 12:31:59;;;;;;;5.90;2.17;;;14.00;99.90;;;;;;4941492;28;20513;-76
2023/10/29 12:34:24;;;;;;;9.18;2.35;;;14.00;99.90;;;;;;4932692;28;20066;-77
2023/10/29 12:36:51;;;;;;;6.75;1.85;;;13.90;99.90;;;;;;4961010;28;20485;-76
2023/10/29 12:39:17;;;;;;;8.30;2.40;;;13.90;99.90;;;;;;4961012;28;20534;-75
2023/10/29 12:41:51;;;;;;;7.47;2.63;;;13.80;99.90;;;;;;4936512;28;20039;-76
2023/10/29 12:44:17;;;;;;;7.40;2.10;;;13.80;99.90;;;;;;4958114;28;20118;-76